createdAt,value
2018-09-28T00:00:51.020Z,8.03
2018-09-28T00:15:51.001Z,8.00
2018-09-28T00:30:52.853Z,7.81
2018-09-28T00:45:50.603Z,7.72
2018-09-28T01:00:51.226Z,7.70
2018-09-28T01:15:54.206Z,7.59
2018-09-28T01:30:51.031Z,7.54
2018-09-28T01:45:51.794Z,7.51
2018-09-28T02:00:50.538Z,7.39
2018-09-28T02:15:52.486Z,7.30
2018-09-28T02:30:51.312Z,7.19
2018-09-28T02:45:52.733Z,7.08
2018-09-28T03:00:51.098Z,6.97
2018-09-28T03:15:53.248Z,6.89
2018-09-28T03:30:50.496Z,6.77
2018-09-28T03:45:50.687Z,6.64
2018-09-28T04:00:51.091Z,6.43
2018-09-28T04:15:50.496Z,6.32
2018-09-28T04:30:51.804Z,6.65
2018-09-28T04:45:51.874Z,6.65
2018-09-28T05:00:51.642Z,7.05
2018-09-28T05:15:51.034Z,10.30
2018-09-28T05:30:53.973Z,12.34
2018-09-28T05:45:51.445Z,14.57
2018-09-28T06:00:55.510Z,15.30
2018-09-28T06:15:52.693Z,15.35
2018-09-28T06:30:50.438Z,17.29
2018-09-28T06:45:51.226Z,16.62
2018-09-28T07:00:50.745Z,15.81
2018-09-28T07:15:50.656Z,16.89
2018-09-28T07:30:50.586Z,18.14
2018-09-28T07:45:50.621Z,18.93
2018-09-28T08:45:51.266Z,21.80
2018-09-28T09:00:53.206Z,21.49
2018-09-28T09:15:51.896Z,19.79
2018-09-28T10:00:56.713Z,17.88
2018-09-28T12:30:51.091Z,20.23
2018-09-28T12:45:52.341Z,20.19
2018-09-28T13:00:51.635Z,20.07
2018-09-28T13:15:51.928Z,19.91
2018-09-28T13:30:51.242Z,19.74
2018-09-28T13:45:51.335Z,19.53
2018-09-28T14:15:52.448Z,19.47
2018-09-28T14:30:50.638Z,19.23
2018-09-28T15:15:50.406Z,18.43
2018-09-28T15:30:50.615Z,17.78
2018-09-28T15:45:50.352Z,17.12
2018-09-28T16:15:51.006Z,16.12
2018-09-28T16:30:50.894Z,15.68
2018-09-28T16:45:50.673Z,15.41
2018-09-28T17:00:51.246Z,15.29
2018-09-28T17:15:51.191Z,15.14
2018-09-28T17:30:53.109Z,15.92
2018-09-28T17:45:53.011Z,15.87
2018-09-28T18:00:50.595Z,15.49
2018-09-28T18:15:49.759Z,14.64
2018-09-28T18:30:51.710Z,13.93
2018-09-28T18:45:51.664Z,13.66
2018-09-28T19:00:52.778Z,13.61
2018-09-28T19:15:50.527Z,13.47
2018-09-28T19:30:50.568Z,13.30
2018-09-28T19:45:51.452Z,13.26
2018-09-28T20:00:51.042Z,13.34
2018-09-28T20:15:51.091Z,13.49
2018-09-28T20:30:50.163Z,13.42
2018-09-28T20:45:50.962Z,13.17
2018-09-28T21:00:52.267Z,13.04
2018-09-28T21:15:51.646Z,13.02
2018-09-28T21:30:51.666Z,13.12
2018-09-28T21:45:53.138Z,13.22
2018-09-28T22:00:56.008Z,13.31
2018-09-28T22:15:50.421Z,13.28
2018-09-28T22:30:50.456Z,13.22
2018-09-28T22:45:50.346Z,13.21
2018-09-28T23:00:51.219Z,13.22
2018-09-28T23:15:50.776Z,13.24
2018-09-28T23:30:51.659Z,13.16
2018-09-28T23:45:50.661Z,13.00
